Time;durP1;ratioP1;P1;durP2;ratioP2;P2;SDS_P1;SDS_P2;PMS_P1;PMS_P2;Temp;Humidity;BMP_temperature;BMP_pressure;BME280_temperature;BME280_humidity;BME280_pressure;Samples;Min_cycle;Max_cycle;Signal;HPM_P1;HPM_P2
2022/04/13 00:03:33;;;;;;;7.13;3.28;;;;;;;13.25;84.53;100177.41;8289869;28;20092;-65
2022/04/13 00:07:34;;;;;;;8.65;3.85;;;;;;;13.27;84.20;100172.66;8285380;28;20044;-65
2022/04/13 00:11:34;;;;;;;7.35;3.30;;;;;;;13.18;84.89;100173.66;8288424;28;20522;-65
2022/04/13 00:15:35;;;;;;;8.23;3.55;;;;;;;12.90;86.94;100174.88;8287626;28;20045;-65
2022/04/13 00:19:35;;;;;;;8.38;3.33;;;;;;;13.07;85.56;100182.09;8287798;28;20049;-65
2022/04/13 00:23:35;;;;;;;8.02;3.40;;;;;;;13.07;85.67;100182.09;8285989;28;20046;-65
2022/04/13 00:27:36;;;;;;;8.15;3.28;;;;;;;13.16;85.24;100187.38;8269699;28;20456;-65
2022/04/13 00:31:36;;;;;;;8.70;3.33;;;;;;;13.18;84.89;100184.50;8264438;28;20042;-65
2022/04/13 00:35:37;;;;;;;6.75;3.30;;;;;;;13.26;84.13;100187.22;8282133;28;20049;-65
2022/04/13 00:39:38;;;;;;;9.55;3.58;;;;;;;13.23;85.03;100187.56;8269086;28;20101;-65
2022/04/13 00:43:39;;;;;;;11.50;3.63;;;;;;;13.23;85.29;100182.13;8260841;28;20073;-65
2022/04/13 00:47:41;;;;;;;6.22;4.00;;;;;;;13.24;85.00;100195.53;8259585;28;20610;-65
2022/04/13 00:51:41;;;;;;;8.23;3.50;;;;;;;13.26;85.00;100192.66;8285125;28;20044;-65
2022/04/13 00:55:43;;;;;;;7.47;3.42;;;;;;;13.19;86.03;100191.63;8290970;28;20042;-65
2022/04/13 00:59:46;;;;;;;8.35;3.80;;;;;;;12.87;88.62;100194.22;8289864;28;20457;-65
2022/04/13 01:03:50;;;;;;;8.00;3.53;;;;;;;12.87;88.74;100191.50;8290233;28;20042;-65
2022/04/13 01:07:52;;;;;;;12.98;4.20;;;;;;;12.89;89.26;100197.59;8274263;28;20056;-65
2022/04/13 01:11:52;;;;;;;6.18;3.35;;;;;;;12.97;88.75;100203.91;8264473;28;20099;-65
2022/04/13 01:15:53;;;;;;;7.63;4.13;;;;;;;13.01;88.17;100209.88;8291789;28;20328;-65
2022/04/13 01:19:54;;;;;;;7.25;3.75;;;;;;;13.00;88.24;100214.47;8291280;28;20034;-65
2022/04/13 01:23:54;;;;;;;12.02;3.20;;;;;;;12.96;88.96;100223.06;8290130;28;20073;-65
2022/04/13 01:27:55;;;;;;;6.60;3.38;;;;;;;12.78;90.73;100225.03;8290671;28;20497;-65
2022/04/13 01:31:56;;;;;;;8.17;3.20;;;;;;;12.90;89.88;100218.31;8291693;28;20041;-65
2022/04/13 01:36:01;;;;;;;5.35;3.10;;;;;;;12.98;88.54;100226.47;8291403;28;20287;-65
2022/04/13 01:40:01;;;;;;;12.95;3.97;;;;;;;12.99;88.21;100222.75;8290033;28;20266;-65
2022/04/13 01:44:02;;;;;;;8.90;4.00;;;;;;;12.99;88.26;100225.47;8290346;28;20049;-65
2022/04/13 01:48:02;;;;;;;7.55;3.95;;;;;;;13.02;87.73;100230.59;8275488;28;20525;-65
2022/04/13 01:52:05;;;;;;;9.43;2.80;;;;;;;13.00;87.98;100224.47;8264436;28;20038;-65
2022/04/13 01:56:06;;;;;;;7.72;3.17;;;;;;;12.97;87.91;100225.63;8261882;28;20026;-65
2022/04/13 02:00:09;;;;;;;7.40;2.80;;;;;;;12.78;89.49;100238.59;8270901;28;20046;-65
2022/04/13 02:04:19;;;;;;;6.33;3.37;;;;;;;12.79;90.69;100243.84;8260147;28;20038;-65
2022/04/13 02:08:21;;;;;;;9.00;3.10;;;;;;;12.05;95.76;100247.22;8269118;28;20038;-65
2022/04/13 02:12:21;;;;;;;6.25;2.90;;;;;;;12.08;94.63;100238.78;8279839;28;20045;-65
2022/04/13 02:16:22;;;;;;;9.18;3.85;;;;;;;12.16;95.61;100249.66;8280823;28;20046;-65
2022/04/13 02:20:22;;;;;;;11.48;3.40;;;;;;;12.12;95.51;100251.00;8283950;28;20445;-65
2022/04/13 02:24:22;;;;;;;10.25;3.42;;;;;;;12.13;95.38;100241.88;8274692;28;20473;-65
2022/04/13 02:28:23;;;;;;;6.63;3.15;;;;;;;12.34;94.40;100253.19;8268369;28;20132;-65
2022/04/13 02:32:23;;;;;;;4.72;2.90;;;;;;;12.27;93.57;100257.56;8266501;28;20089;-65
2022/04/13 02:36:24;;;;;;;6.32;3.50;;;;;;;11.87;97.30;100264.31;8241077;28;20084;-65
2022/04/13 02:40:24;;;;;;;8.27;3.42;;;;;;;12.13;95.00;100271.69;8271005;28;20125;-65
2022/04/13 02:44:25;;;;;;;6.00;3.53;;;;;;;11.74;97.32;100274.69;8261073;28;20117;-65
2022/04/13 02:48:25;;;;;;;5.95;3.30;;;;;;;11.83;97.82;100279.19;8268169;28;20034;-65
2022/04/13 02:52:28;;;;;;;6.95;3.53;;;;;;;11.82;97.45;100279.34;8288923;28;20037;-65
2022/04/13 02:56:29;;;;;;;7.13;3.38;;;;;;;11.99;96.37;100273.09;8281422;28;20053;-65
2022/04/13 03:00:29;;;;;;;7.15;3.53;;;;;;;12.15;94.92;100280.50;8272254;28;20038;-65
2022/04/13 03:04:32;;;;;;;7.72;3.30;;;;;;;11.93;96.12;100277.25;8259539;28;20045;-65
2022/04/13 03:08:32;;;;;;;9.00;3.25;;;;;;;11.90;96.74;100272.13;8270793;28;20069;-65
2022/04/13 03:12:34;;;;;;;9.95;4.43;;;;;;;11.93;97.84;100274.53;8289190;28;20514;-65
2022/04/13 03:16:34;;;;;;;7.53;4.07;;;;;;;11.79;98.22;100275.09;8288708;28;20406;-65
2022/04/13 03:20:35;;;;;;;8.93;3.33;;;;;;;11.68;98.76;100278.03;8290585;28;20060;-65
2022/04/13 03:24:35;;;;;;;7.47;3.88;;;;;;;11.70;99.09;100289.56;8290486;28;20409;-65
2022/04/13 03:28:36;;;;;;;13.23;3.67;;;;;;;11.64;99.03;100287.47;8290247;28;20046;-65
2022/04/13 03:32:37;;;;;;;9.10;3.50;;;;;;;11.72;98.98;100294.81;8272007;28;20859;-65
2022/04/13 03:36:39;;;;;;;10.48;3.25;;;;;;;12.06;97.72;100289.56;8274998;28;20509;-65
2022/04/13 03:40:39;;;;;;;9.68;3.60;;;;;;;11.86;98.11;100297.84;8270595;28;20035;-65
2022/04/13 03:44:40;;;;;;;6.80;2.88;;;;;;;12.11;96.07;100295.38;8260857;28;20586;-65
2022/04/13 03:48:40;;;;;;;6.90;3.17;;;;;;;12.22;94.61;100298.69;8267125;28;20072;-65
2022/04/13 03:52:41;;;;;;;4.18;2.85;;;;;;;12.22;94.31;100314.94;8273593;28;20049;-65
2022/04/13 03:56:41;;;;;;;8.60;3.92;;;;;;;11.90;95.97;100310.06;8258949;28;20076;-65
2022/04/13 04:00:42;;;;;;;6.45;3.15;;;;;;;11.74;96.96;100307.19;8262136;28;20046;-65
2022/04/13 04:04:42;;;;;;;5.70;2.88;;;;;;;11.88;95.43;100314.81;8263531;28;20031;-65
2022/04/13 04:08:42;;;;;;;9.38;3.42;;;;;;;11.93;94.72;100308.06;8263246;28;20113;-65
2022/04/13 04:12:43;;;;;;;6.30;3.72;;;;;;;11.99;94.39;100307.44;8269090;28;20100;-65
2022/04/13 04:16:43;;;;;;;6.45;3.30;;;;;;;12.15;93.16;100313.00;8284412;28;20045;-65
2022/04/13 04:20:44;;;;;;;7.68;3.53;;;;;;;12.25;91.84;100313.78;8295452;28;20084;-65
2022/04/13 04:24:44;;;;;;;11.45;4.22;;;;;;;12.31;91.00;100318.56;8290372;28;20741;-65
2022/04/13 04:28:44;;;;;;;8.47;4.43;;;;;;;12.40;90.01;100328.47;8291732;28;20037;-65
2022/04/13 04:32:45;;;;;;;7.88;3.38;;;;;;;12.41;89.52;100328.31;8290614;28;20746;-65
2022/04/13 04:36:46;;;;;;;8.13;3.17;;;;;;;12.48;89.39;100332.13;8280905;28;20111;-65
2022/04/13 04:40:46;;;;;;;7.07;3.35;;;;;;;12.41;89.34;100319.34;8295398;28;20042;-65
2022/04/13 04:44:47;;;;;;;11.77;3.92;;;;;;;12.25;91.22;100319.19;8295114;28;20107;-65
2022/04/13 04:48:47;;;;;;;8.45;3.88;;;;;;;11.81;95.46;100332.66;8294802;28;20030;-65
2022/04/13 04:52:49;;;;;;;13.13;4.20;;;;;;;11.64;96.81;100341.63;8294230;28;20042;-65
2022/04/13 04:56:49;;;;;;;11.23;4.30;;;;;;;11.74;96.05;100347.81;8293125;28;20045;-65
2022/04/13 05:00:49;;;;;;;7.53;3.67;;;;;;;11.47;99.23;100355.91;8293622;28;20045;-65
2022/04/13 05:04:50;;;;;;;13.40;4.70;;;;;;;11.47;99.41;100364.03;8272928;28;20042;-65
2022/04/13 05:08:51;;;;;;;7.43;4.10;;;;;;;11.58;97.76;100355.72;8261288;28;20274;-65
2022/04/13 05:12:56;;;;;;;7.93;4.07;;;;;;;11.70;96.39;100359.09;8275571;28;20387;-65
2022/04/13 05:16:57;;;;;;;14.48;3.50;;;;;;;11.70;95.95;100368.09;8277076;28;20438;-65
2022/04/13 05:20:57;;;;;;;15.68;4.00;;;;;;;11.76;95.95;100372.91;8291148;28;20062;-65
2022/04/13 05:25:03;;;;;;;10.73;4.55;;;;;;;11.86;95.80;100383.66;8276243;28;20042;-65
2022/04/13 05:29:03;;;;;;;14.43;4.40;;;;;;;11.93;94.82;100381.22;8285325;28;20043;-65
2022/04/13 05:33:05;;;;;;;15.75;4.63;;;;;;;12.02;94.62;100378.44;8257897;28;20151;-65
2022/04/13 05:37:06;;;;;;;9.73;4.63;;;;;;;12.12;93.24;100391.91;8256674;28;20034;-65
2022/04/13 05:41:06;;;;;;;11.80;4.10;;;;;;;12.24;92.87;100398.81;8256245;28;20044;-65
2022/04/13 05:45:08;;;;;;;8.02;4.50;;;;;;;12.35;91.56;100402.13;8264500;28;20269;-65
2022/04/13 05:49:08;;;;;;;11.07;4.20;;;;;;;12.48;91.71;100408.03;8260889;28;20099;-65
2022/04/13 05:53:09;;;;;;;9.20;4.22;;;;;;;12.70;89.79;100418.41;8287368;28;20042;-65
2022/04/13 05:57:09;;;;;;;13.40;4.60;;;;;;;12.60;90.36;100417.63;8284729;28;20077;-65
2022/04/13 06:01:10;;;;;;;12.05;5.60;;;;;;;12.63;91.37;100427.31;8278888;28;20038;-65
2022/04/13 06:05:11;;;;;;;17.35;7.97;;;;;;;12.74;91.22;100429.78;8285691;28;20045;-65
2022/04/13 06:09:11;;;;;;;22.13;12.63;;;;;;;13.00;91.10;100437.00;8271021;28;20040;-64
2022/04/13 06:13:12;;;;;;;27.83;19.63;;;;;;;13.00;89.92;100436.16;8270140;28;20050;-64
2022/04/13 06:17:12;;;;;;;32.63;24.90;;;;;;;13.13;90.47;100442.00;8255924;28;20042;-64
2022/04/13 06:21:12;;;;;;;43.05;28.70;;;;;;;13.27;89.39;100447.69;8265880;28;20512;-65
2022/04/13 06:25:13;;;;;;;35.92;24.75;;;;;;;13.64;88.79;100452.88;8275938;28;20045;-65
2022/04/13 06:29:14;;;;;;;17.13;11.05;;;;;;;13.87;91.28;100453.16;8260902;28;20401;-64
2022/04/13 06:33:15;;;;;;;18.60;9.73;;;;;;;14.05;89.15;100452.03;8281278;28;20045;-64
2022/04/13 06:37:15;;;;;;;21.77;12.80;;;;;;;14.52;88.37;100455.09;8274443;28;20057;-64
2022/04/13 06:41:15;;;;;;;21.77;12.60;;;;;;;15.01;88.10;100456.81;8275044;28;20281;-64
2022/04/13 06:45:16;;;;;;;19.77;14.48;;;;;;;15.60;84.88;100460.03;8274133;28;20395;-64
2022/04/13 06:49:16;;;;;;;21.25;12.25;;;;;;;15.90;82.64;100463.84;8275282;28;20037;-64
2022/04/13 06:53:18;;;;;;;15.70;8.37;;;;;;;16.26;79.85;100461.47;8273961;28;20053;-65
2022/04/13 06:57:19;;;;;;;14.38;6.85;;;;;;;16.65;77.67;100473.22;8270587;28;20287;-64
2022/04/13 07:01:19;;;;;;;13.77;5.72;;;;;;;16.81;75.29;100467.63;8293091;28;20042;-64
2022/04/13 07:05:19;;;;;;;19.92;5.95;;;;;;;17.05;74.93;100465.56;8264167;28;20048;-65
2022/04/13 07:09:20;;;;;;;19.45;4.95;;;;;;;17.29;75.52;100473.53;8286146;28;20033;-65
2022/04/13 07:13:21;;;;;;;16.33;5.68;;;;;;;17.58;75.55;100470.91;8281038;28;20609;-65
2022/04/13 07:17:21;;;;;;;14.88;5.50;;;;;;;17.83;75.25;100471.50;8260001;28;20041;-65
2022/04/13 07:21:22;;;;;;;18.38;5.97;;;;;;;17.83;74.71;100471.50;8267605;28;20046;-65
2022/04/13 07:25:23;;;;;;;26.35;6.03;;;;;;;18.27;73.19;100485.97;8269159;28;20052;-65
2022/04/13 07:29:23;;;;;;;19.45;5.88;;;;;;;18.35;72.16;100488.63;8264699;28;20128;-65
2022/04/13 07:33:23;;;;;;;24.75;5.90;;;;;;;18.68;71.42;100492.66;8271185;28;20041;-65
2022/04/13 07:37:24;;;;;;;22.00;5.00;;;;;;;18.48;70.95;100505.25;8263019;28;20038;-67
2022/04/13 07:41:24;;;;;;;11.93;4.80;;;;;;;18.52;73.66;100498.38;8277133;28;20299;-65
2022/04/13 07:45:25;;;;;;;23.45;4.78;;;;;;;18.97;72.69;100511.72;8280046;28;20045;-65
2022/04/13 07:49:25;;;;;;;18.58;5.60;;;;;;;19.13;71.61;100511.44;8274607;28;20046;-65
2022/04/13 07:53:26;;;;;;;19.15;4.78;;;;;;;18.89;70.96;100509.13;8268871;28;20554;-65
2022/04/13 07:57:26;;;;;;;16.27;5.83;;;;;;;19.20;71.02;100517.00;8263693;28;20039;-65
2022/04/13 08:01:27;;;;;;;14.70;4.40;;;;;;;19.54;69.40;100521.81;8265916;28;20411;-65
2022/04/13 08:05:27;;;;;;;20.77;4.15;;;;;;;19.76;69.14;100517.97;8258614;28;20049;-66
2022/04/13 08:09:28;;;;;;;16.27;4.03;;;;;;;19.82;69.26;100528.16;8280742;28;20159;-66
2022/04/13 08:13:28;;;;;;;15.90;4.80;;;;;;;19.77;70.72;100520.50;8263691;28;20058;-66
2022/04/13 08:17:29;;;;;;;23.20;5.47;;;;;;;19.98;68.28;100522.34;8274114;28;20509;-65
2022/04/13 08:21:29;;;;;;;17.77;5.03;;;;;;;20.04;69.19;100532.53;8278808;28;20279;-65
2022/04/13 08:25:30;;;;;;;22.48;4.70;;;;;;;20.26;68.08;100532.28;8273412;28;20398;-65
2022/04/13 08:29:30;;;;;;;20.38;4.22;;;;;;;20.21;67.98;100533.91;8275826;28;20263;-65
2022/04/13 08:33:31;;;;;;;15.77;3.73;;;;;;;20.45;67.38;100541.66;8272751;28;20053;-65
2022/04/13 08:37:33;;;;;;;20.23;4.88;;;;;;;20.56;68.39;100549.34;8285352;28;20738;-65
2022/04/13 08:41:51;;;;;;;18.67;4.82;;;;;;;20.71;66.74;100552.78;8279074;28;20603;-65
2022/04/13 08:45:57;;;;;;;15.57;4.93;;;;;;;20.76;66.43;100550.25;8275517;28;20046;-65
2022/04/13 08:49:57;;;;;;;17.40;5.05;;;;;;;20.81;66.54;100553.25;8275329;28;20133;-65
2022/04/13 08:54:09;;;;;;;19.67;5.88;;;;;;;20.96;67.08;100545.72;8281618;28;20042;-65
2022/04/13 08:58:40;;;;;;;22.73;5.05;;;;;;;21.28;64.45;100555.94;8274488;28;20044;-65
2022/04/13 09:02:57;;;;;;;14.88;5.80;;;;;;;21.55;63.81;100556.81;8270795;28;20616;-65
2022/04/13 09:07:00;;;;;;;13.07;4.63;;;;;;;21.55;62.26;100557.69;8275422;28;20501;-65
2022/04/13 09:11:03;;;;;;;13.97;3.80;;;;;;;21.09;62.12;100556.75;8276495;28;20048;-65
2022/04/13 09:15:05;;;;;;;11.43;4.70;;;;;;;21.34;63.21;100557.84;8283393;28;20065;-65
2022/04/13 09:19:06;;;;;;;13.15;4.28;;;;;;;21.47;65.27;100560.63;8275813;28;20084;-65
2022/04/13 09:23:06;;;;;;;13.00;4.93;;;;;;;21.04;63.89;100571.13;8275756;28;20101;-65
2022/04/13 09:27:07;;;;;;;11.07;4.20;;;;;;;21.02;64.57;100577.88;8267161;28;20053;-65
2022/04/13 09:31:08;;;;;;;13.00;4.40;;;;;;;21.01;64.22;100576.16;8276629;28;20052;-65
2022/04/13 09:35:09;;;;;;;15.10;4.35;;;;;;;21.02;66.26;100575.13;8275140;28;20545;-65
2022/04/13 09:39:10;;;;;;;8.52;3.83;;;;;;;21.14;66.18;100587.22;8274504;28;20065;-66
2022/04/13 09:47:30;;;;;;;10.90;3.20;;;;;;;21.46;63.20;100586.44;8397803;27;20397;-65
2022/04/13 09:51:42;;;;;;;9.32;4.20;;;;;;;21.12;63.62;100592.94;8388126;28;20033;-65
2022/04/13 09:55:45;;;;;;;9.35;3.35;;;;;;;20.80;64.08;100595.53;8380536;28;20123;-66
2022/04/13 09:59:54;;;;;;;11.45;3.97;;;;;;;22.90;61.59;100593.53;8388111;28;20051;-66
2022/04/13 10:03:55;;;;;;;7.47;2.85;;;;;;;25.24;56.01;100589.81;8366076;28;20041;-66
2022/04/13 10:08:08;;;;;;;8.85;2.80;;;;;;;26.63;54.11;100589.03;8351683;28;20333;-66
2022/04/13 10:12:09;;;;;;;13.00;2.47;;;;;;;25.99;52.11;100583.59;8360500;28;20463;-66
2022/04/13 10:16:12;;;;;;;16.05;3.15;;;;;;;27.17;51.40;100586.88;8379941;28;20098;-66
2022/04/13 10:20:12;;;;;;;11.13;3.08;;;;;;;27.74;49.92;100588.53;8383952;28;20062;-66
2022/04/13 10:24:30;;;;;;;14.00;2.92;;;;;;;27.26;50.79;100596.53;8371254;28;20037;-66
2022/04/13 10:28:30;;;;;;;10.65;2.85;;;;;;;27.72;49.87;100590.75;8380781;28;20504;-66
2022/04/13 10:32:31;;;;;;;9.53;2.87;;;;;;;27.64;49.94;100591.16;8397269;28;20731;-66
2022/04/13 10:36:31;;;;;;;14.27;3.33;;;;;;;27.60;50.53;100592.75;8387144;28;20351;-66
2022/04/13 10:40:35;;;;;;;14.57;3.50;;;;;;;28.11;48.92;100595.34;8382943;27;20491;-66
2022/04/13 10:44:41;;;;;;;10.70;2.50;;;;;;;26.99;49.62;100596.22;8399297;28;20089;-66
2022/04/13 10:48:43;;;;;;;9.20;2.10;;;;;;;25.34;52.87;100592.88;8404329;27;20521;-66
2022/04/13 10:53:23;;;;;;;10.38;2.03;;;;;;;23.47;57.30;100605.56;8386636;28;20055;-66
2022/04/13 10:57:28;;;;;;;8.20;2.60;;;;;;;22.85;59.14;100590.59;8377229;28;20630;-66
2022/04/13 11:01:37;;;;;;;9.52;1.70;;;;;;;22.62;59.80;100595.75;8362248;28;20044;-65
2022/04/13 11:05:40;;;;;;;15.18;2.35;;;;;;;23.09;59.33;100592.59;8367607;28;20048;-65
2022/04/13 11:09:42;;;;;;;5.28;1.85;;;;;;;22.93;60.17;100598.63;8357166;28;20044;-65
2022/04/13 11:13:45;;;;;;;6.65;1.73;;;;;;;23.08;58.97;100601.94;8369185;28;20300;-65
2022/04/13 11:17:46;;;;;;;12.50;2.15;;;;;;;22.76;60.70;100605.69;8374438;28;20051;-65
2022/04/13 11:26:09;;;;;;;4.57;1.30;;;;;;;22.26;59.08;100600.06;8340775;27;20541;-64
2022/04/13 11:30:09;;;;;;;9.68;1.80;;;;;;;22.36;57.39;100606.81;8299814;28;20181;-65
2022/04/13 11:34:11;;;;;;;10.80;2.30;;;;;;;22.56;57.90;100613.16;8324118;28;20511;-65
2022/04/13 11:38:11;;;;;;;8.88;2.00;;;;;;;22.55;59.29;100614.22;8321868;28;20037;-65
2022/04/13 11:46:37;;;;;;;12.43;2.10;;;;;;;23.04;59.65;100611.72;8384870;27;20383;-66
2022/04/13 11:50:39;;;;;;;12.70;2.23;;;;;;;23.14;57.69;100612.09;8361478;28;20558;-65
2022/04/13 11:54:47;;;;;;;14.13;2.97;;;;;;;24.39;56.24;100606.53;8356559;28;20041;-65
2022/04/13 11:58:47;;;;;;;9.50;2.28;;;;;;;24.81;53.52;100612.09;8357102;28;20080;-65
2022/04/13 12:02:48;;;;;;;10.67;2.00;;;;;;;25.84;52.65;100608.13;8352095;28;20245;-65
2022/04/13 12:06:49;;;;;;;9.52;2.00;;;;;;;26.48;50.34;100613.66;8333098;28;20898;-65
2022/04/13 12:10:56;;;;;;;12.70;3.50;;;;;;;24.76;55.12;100613.81;8355364;28;20433;-65
2022/04/13 12:14:57;;;;;;;9.25;3.88;;;;;;;23.54;57.68;100609.16;8348947;28;20090;-65
2022/04/13 12:19:05;;;;;;;9.07;2.90;;;;;;;23.30;59.34;100604.41;8339855;28;20118;-65
2022/04/13 12:23:25;;;;;;;10.52;3.17;;;;;;;22.65;59.33;100606.34;8354590;28;20076;-65
2022/04/13 12:27:25;;;;;;;10.30;2.70;;;;;;;22.02;60.99;100596.03;8344581;28;20410;-65
2022/04/13 12:31:27;;;;;;;9.32;2.90;;;;;;;21.73;60.55;100604.69;8364295;28;20396;-65
2022/04/13 12:35:27;;;;;;;10.77;3.20;;;;;;;21.73;61.81;100610.19;8365393;28;20462;-65
2022/04/13 12:39:32;;;;;;;10.23;3.23;;;;;;;21.67;63.82;100611.03;8359312;28;20529;-65
2022/04/13 12:43:33;;;;;;;12.52;4.38;;;;;;;21.60;64.18;100610.19;8344986;28;20279;-65
2022/04/13 12:47:43;;;;;;;10.13;4.60;;;;;;;21.64;64.92;100616.97;8327912;28;21341;-65
2022/04/13 12:51:44;;;;;;;10.30;3.97;;;;;;;21.62;64.73;100619.06;8364372;28;20033;-65
2022/04/13 12:55:57;;;;;;;11.37;5.03;;;;;;;21.40;64.35;100620.28;8359323;28;20506;-65
2022/04/13 12:59:57;;;;;;;8.55;4.10;;;;;;;21.29;63.71;100619.00;8332617;28;20268;-65
2022/04/13 13:04:11;;;;;;;17.02;4.57;;;;;;;21.19;64.47;100623.19;8304149;28;20056;-65
2022/04/13 13:08:12;;;;;;;9.27;5.00;;;;;;;21.19;64.86;100625.94;8308869;28;20046;-65
2022/04/13 13:12:15;;;;;;;12.43;5.57;;;;;;;21.13;65.67;100624.00;8302127;28;20072;-65
2022/04/13 13:16:36;;;;;;;17.75;6.03;;;;;;;21.27;67.05;100625.75;8304182;28;20089;-63
2022/04/13 13:20:53;;;;;;;13.52;6.88;;;;;;;21.28;66.68;100621.94;8302088;28;20111;-66
2022/04/13 13:29:07;;;;;;;13.05;4.90;;;;;;;21.29;66.61;100626.41;8271009;27;20402;-65
2022/04/13 13:33:12;;;;;;;19.50;4.88;;;;;;;21.24;67.82;100626.19;8298560;28;20084;-65
2022/04/13 13:37:47;;;;;;;11.63;5.50;;;;;;;21.40;67.45;100619.47;8281057;28;20069;-65
2022/04/13 13:42:06;;;;;;;23.42;7.80;;;;;;;21.41;67.97;100624.75;8299430;28;20040;-65
2022/04/13 13:46:17;;;;;;;17.88;5.72;;;;;;;21.42;69.28;100626.44;8279575;28;20062;-65
2022/04/13 13:50:17;;;;;;;13.55;5.57;;;;;;;21.45;66.79;100623.28;8290299;28;20372;-66
2022/04/13 13:54:18;;;;;;;17.75;5.32;;;;;;;21.54;66.44;100633.03;8290949;28;20041;-65
2022/04/13 13:58:18;;;;;;;11.57;5.75;;;;;;;21.55;67.37;100618.22;8294547;28;20045;-65
2022/04/13 14:02:19;;;;;;;17.45;5.60;;;;;;;21.53;69.24;100631.31;8291076;28;20319;-66
2022/04/13 14:06:20;;;;;;;14.50;6.45;;;;;;;21.37;66.82;100626.22;8286395;28;20570;-65
2022/04/13 14:10:21;;;;;;;11.32;6.00;;;;;;;21.07;66.13;100620.19;8283786;28;20046;-65
2022/04/13 14:14:22;;;;;;;13.48;6.35;;;;;;;21.01;66.46;100626.50;8302304;28;20103;-65
2022/04/13 14:18:22;;;;;;;9.27;4.93;;;;;;;20.99;66.82;100623.13;8301904;28;20037;-65
2022/04/13 14:22:22;;;;;;;11.75;4.65;;;;;;;20.97;64.74;100630.72;8299752;28;20354;-65
2022/04/13 14:26:23;;;;;;;15.10;5.00;;;;;;;20.97;65.49;100629.88;8296401;28;20160;-62
2022/04/13 14:30:25;;;;;;;9.75;4.38;;;;;;;21.17;64.73;100631.66;8277171;28;20737;-61
2022/04/13 14:34:26;;;;;;;10.88;5.00;;;;;;;21.29;64.72;100634.66;8286986;28;20038;-61
2022/04/13 14:38:26;;;;;;;11.63;4.83;;;;;;;21.34;64.55;100637.63;8281774;28;20053;-61
2022/04/13 14:42:27;;;;;;;10.48;5.10;;;;;;;21.48;64.32;100646.75;8262827;28;20273;-61
2022/04/13 14:46:28;;;;;;;10.70;4.43;;;;;;;21.18;63.97;100643.50;8266933;28;20054;-62
2022/04/13 14:50:28;;;;;;;20.88;6.22;;;;;;;21.13;65.01;100646.00;8277274;28;20569;-61
2022/04/13 14:54:29;;;;;;;12.75;7.60;;;;;;;20.81;65.46;100641.19;8264210;28;20502;-61
2022/04/13 14:58:29;;;;;;;16.77;8.98;;;;;;;20.61;65.77;100643.81;8273828;28;20046;-62
2022/04/13 15:02:30;;;;;;;14.75;9.30;;;;;;;20.66;66.87;100659.69;8265155;28;20050;-62
2022/04/13 15:06:30;;;;;;;16.27;9.38;;;;;;;20.70;67.75;100644.50;8271631;28;20050;-62
2022/04/13 15:10:30;;;;;;;16.65;10.90;;;;;;;20.64;68.38;100650.81;8265517;28;20050;-62
2022/04/13 15:14:31;;;;;;;19.88;12.13;;;;;;;20.54;68.94;100644.84;8270553;28;20044;-63
2022/04/13 15:18:32;;;;;;;22.05;13.10;;;;;;;20.49;68.70;100652.84;8259937;28;20570;-62
2022/04/13 15:22:33;;;;;;;23.13;15.07;;;;;;;20.40;68.89;100643.88;8270507;28;20061;-62
2022/04/13 15:26:35;;;;;;;21.98;14.45;;;;;;;20.38;68.64;100650.66;8263970;28;20351;-65
2022/04/13 15:30:38;;;;;;;24.60;16.02;;;;;;;20.33;68.56;100648.50;8244985;28;20052;-64
2022/04/13 15:34:38;;;;;;;22.13;14.85;;;;;;;20.48;68.62;100645.63;8271077;28;20049;-66
2022/04/13 15:38:39;;;;;;;22.92;15.20;;;;;;;20.45;68.59;100659.75;8276492;28;20116;-66
2022/04/13 15:42:39;;;;;;;26.83;14.98;;;;;;;20.51;69.02;100661.72;8261339;28;20116;-65
2022/04/13 15:46:41;;;;;;;19.92;14.30;;;;;;;20.37;68.76;100660.78;8256418;28;20046;-66
2022/04/13 15:50:43;;;;;;;19.50;14.75;;;;;;;20.46;70.09;100658.75;8278881;28;20057;-66
2022/04/13 15:54:44;;;;;;;24.58;13.00;;;;;;;20.42;67.62;100665.66;8266240;28;20518;-65
2022/04/13 15:58:46;;;;;;;15.52;11.52;;;;;;;20.35;67.26;100678.50;8273153;28;20422;-65
2022/04/13 16:02:49;;;;;;;17.70;12.80;;;;;;;20.34;67.62;100679.56;8275954;28;20030;-65
2022/04/13 16:06:49;;;;;;;20.65;13.13;;;;;;;20.24;68.10;100671.66;8274492;28;20068;-65
2022/04/13 16:10:50;;;;;;;18.15;13.63;;;;;;;20.14;69.01;100675.78;8274890;28;20050;-65
2022/04/13 16:14:50;;;;;;;22.27;12.80;;;;;;;20.13;68.49;100668.63;8264973;28;20042;-65
2022/04/13 16:18:50;;;;;;;17.45;11.35;;;;;;;20.10;69.22;100658.00;8274817;28;20372;-65
2022/04/13 16:22:52;;;;;;;21.70;11.05;;;;;;;20.11;69.51;100670.66;8273546;28;20575;-65
2022/04/13 16:26:53;;;;;;;17.90;12.43;;;;;;;20.02;68.66;100671.84;8248901;28;20285;-65
2022/04/13 16:30:53;;;;;;;19.75;11.45;;;;;;;19.98;69.02;100665.06;8265709;28;20050;-65
2022/04/13 16:34:53;;;;;;;17.23;10.02;;;;;;;19.99;69.67;100670.38;8263587;28;20497;-66
2022/04/13 16:38:54;;;;;;;15.60;11.07;;;;;;;20.01;69.32;100675.66;8265610;28;20129;-65
2022/04/13 16:42:54;;;;;;;14.82;9.63;;;;;;;19.98;69.17;100681.53;8262222;28;20049;-65
2022/04/13 16:46:55;;;;;;;19.87;9.73;;;;;;;19.94;70.22;100696.72;8265176;28;20046;-65
2022/04/13 16:50:56;;;;;;;21.17;13.00;;;;;;;19.86;70.47;100699.56;8271758;28;20289;-65
2022/04/13 16:54:58;;;;;;;20.10;13.32;;;;;;;19.85;70.59;100703.38;8273393;28;20273;-65
2022/04/13 16:58:58;;;;;;;27.25;14.82;;;;;;;19.77;70.78;100706.22;8271073;28;20141;-65
2022/04/13 17:02:59;;;;;;;24.50;15.77;;;;;;;19.61;71.53;100706.50;8271595;28;20034;-65
2022/04/13 17:06:59;;;;;;;33.00;18.67;;;;;;;19.51;72.26;100703.22;8270435;28;20042;-65
2022/04/13 17:11:00;;;;;;;25.77;18.33;;;;;;;19.42;73.23;100714.28;8271488;28;20069;-65
2022/04/13 17:15:00;;;;;;;26.30;18.60;;;;;;;19.35;73.76;100699.66;8269724;28;20050;-65
2022/04/13 17:19:00;;;;;;;27.80;19.50;;;;;;;19.29;73.92;100714.13;8271495;28;20049;-65
2022/04/13 17:23:01;;;;;;;32.00;20.30;;;;;;;19.21;74.11;100705.97;8273166;28;20245;-65
2022/04/13 17:27:01;;;;;;;29.70;19.50;;;;;;;19.14;74.75;100710.53;8263495;28;20046;-65
2022/04/13 17:31:02;;;;;;;28.95;18.60;;;;;;;19.10;74.79;100708.38;8271114;28;20465;-66
2022/04/13 17:35:03;;;;;;;27.20;18.58;;;;;;;19.04;74.37;100720.94;8265108;28;20048;-65
2022/04/13 17:39:04;;;;;;;28.52;17.88;;;;;;;18.94;74.37;100709.41;8267827;28;20688;-65
2022/04/13 17:43:05;;;;;;;27.27;17.10;;;;;;;18.87;74.56;100716.69;8265938;28;20445;-65
2022/04/13 17:47:06;;;;;;;29.38;16.83;;;;;;;18.80;74.96;100718.50;8257231;28;20050;-65
2022/04/13 17:51:07;;;;;;;26.42;16.42;;;;;;;18.73;75.27;100724.91;8261148;28;20440;-65
2022/04/13 17:55:08;;;;;;;25.92;15.48;;;;;;;18.65;74.90;100727.72;8255575;28;20080;-65
2022/04/13 17:59:08;;;;;;;22.05;14.77;;;;;;;18.55;74.85;100728.00;8256375;28;20597;-65
2022/04/13 18:03:09;;;;;;;19.55;13.95;;;;;;;18.50;75.00;100737.81;8254913;28;20038;-65
2022/04/13 18:07:11;;;;;;;22.92;14.43;;;;;;;18.41;75.53;100734.31;8274004;28;20493;-65
2022/04/13 18:11:11;;;;;;;20.35;13.35;;;;;;;18.36;75.60;100736.69;8274349;28;20643;-65
2022/04/13 18:15:13;;;;;;;19.95;13.68;;;;;;;18.23;76.22;100736.47;8275654;28;20427;-65
2022/04/13 18:19:14;;;;;;;25.95;13.93;;;;;;;18.18;76.64;100736.22;8270346;28;20041;-65
2022/04/13 18:23:16;;;;;;;25.20;14.95;;;;;;;18.15;76.62;100746.66;8262508;28;20045;-65
2022/04/13 18:27:16;;;;;;;21.45;14.07;;;;;;;18.12;76.67;100750.63;8257521;28;20046;-65
2022/04/13 18:31:19;;;;;;;24.10;13.25;;;;;;;18.00;77.20;100746.63;8270178;28;20096;-65
2022/04/13 18:35:20;;;;;;;23.50;15.30;;;;;;;17.98;77.53;100754.13;8274255;28;20030;-65
2022/04/13 18:39:20;;;;;;;27.10;14.73;;;;;;;17.98;77.66;100766.97;8264409;28;20465;-65
2022/04/13 18:43:21;;;;;;;21.05;14.20;;;;;;;17.92;77.65;100764.94;8269293;28;20069;-65
2022/04/13 18:47:22;;;;;;;25.10;14.98;;;;;;;17.82;78.64;100776.16;8288849;28;20087;-65
2022/04/13 18:51:23;;;;;;;23.63;16.00;;;;;;;17.58;80.54;100795.44;8289379;28;20038;-65